sensor_id;sensor_type;location;lat;lon;timestamp;P1;durP1;ratioP1;P2;durP2;ratioP2
20431;SDS011;10375;49.136;10.366;2024-02-16T00:00:09;4.85;;;3.53;;
20431;SDS011;10375;49.136;10.366;2024-02-16T00:02:40;6.10;;;3.25;;
20431;SDS011;10375;49.136;10.366;2024-02-16T00:05:09;3.65;;;2.80;;
20431;SDS011;10375;49.136;10.366;2024-02-16T00:07:38;5.15;;;3.15;;
20431;SDS011;10375;49.136;10.366;2024-02-16T00:10:06;6.25;;;3.15;;
20431;SDS011;10375;49.136;10.366;2024-02-16T00:12:35;4.57;;;3.70;;
20431;SDS011;10375;49.136;10.366;2024-02-16T00:15:04;6.22;;;3.90;;
20431;SDS011;10375;49.136;10.366;2024-02-16T00:17:31;5.05;;;3.65;;
20431;SDS011;10375;49.136;10.366;2024-02-16T00:20:00;5.25;;;3.58;;
20431;SDS011;10375;49.136;10.366;2024-02-16T00:22:27;10.43;;;4.43;;
20431;SDS011;10375;49.136;10.366;2024-02-16T00:24:55;8.90;;;3.97;;
20431;SDS011;10375;49.136;10.366;2024-02-16T00:27:24;5.22;;;3.67;;
20431;SDS011;10375;49.136;10.366;2024-02-16T00:29:51;8.27;;;4.20;;
20431;SDS011;10375;49.136;10.366;2024-02-16T00:32:18;5.63;;;4.35;;
20431;SDS011;10375;49.136;10.366;2024-02-16T00:34:46;8.23;;;3.72;;
20431;SDS011;10375;49.136;10.366;2024-02-16T00:37:13;4.85;;;3.55;;
20431;SDS011;10375;49.136;10.366;2024-02-16T00:39:41;5.70;;;4.00;;
20431;SDS011;10375;49.136;10.366;2024-02-16T00:42:09;8.00;;;4.13;;
20431;SDS011;10375;49.136;10.366;2024-02-16T00:44:37;5.68;;;3.90;;
20431;SDS011;10375;49.136;10.366;2024-02-16T00:47:05;6.40;;;4.47;;
20431;SDS011;10375;49.136;10.366;2024-02-16T00:49:32;5.10;;;3.80;;
20431;SDS011;10375;49.136;10.366;2024-02-16T00:52:00;6.03;;;4.00;;
20431;SDS011;10375;49.136;10.366;2024-02-16T00:54:28;10.38;;;4.40;;
20431;SDS011;10375;49.136;10.366;2024-02-16T00:56:56;7.05;;;4.53;;
20431;SDS011;10375;49.136;10.366;2024-02-16T00:59:29;5.55;;;3.75;;
20431;SDS011;10375;49.136;10.366;2024-02-16T01:01:56;5.15;;;3.67;;
20431;SDS011;10375;49.136;10.366;2024-02-16T01:04:23;10.07;;;3.58;;
20431;SDS011;10375;49.136;10.366;2024-02-16T01:06:50;9.98;;;4.07;;
20431;SDS011;10375;49.136;10.366;2024-02-16T01:09:18;4.78;;;3.30;;
20431;SDS011;10375;49.136;10.366;2024-02-16T01:11:45;5.82;;;3.58;;
20431;SDS011;10375;49.136;10.366;2024-02-16T01:14:14;5.57;;;3.72;;
20431;SDS011;10375;49.136;10.366;2024-02-16T01:16:42;5.65;;;3.90;;
20431;SDS011;10375;49.136;10.366;2024-02-16T01:19:09;9.45;;;4.20;;
20431;SDS011;10375;49.136;10.366;2024-02-16T01:21:37;6.70;;;3.28;;
20431;SDS011;10375;49.136;10.366;2024-02-16T01:24:04;6.75;;;4.20;;
20431;SDS011;10375;49.136;10.366;2024-02-16T01:26:32;7.25;;;3.72;;
20431;SDS011;10375;49.136;10.366;2024-02-16T01:29:00;9.55;;;4.82;;
20431;SDS011;10375;49.136;10.366;2024-02-16T01:31:29;6.30;;;4.32;;
20431;SDS011;10375;49.136;10.366;2024-02-16T01:33:56;6.93;;;4.30;;
20431;SDS011;10375;49.136;10.366;2024-02-16T01:36:23;7.35;;;4.45;;
20431;SDS011;10375;49.136;10.366;2024-02-16T01:38:51;9.40;;;4.30;;
20431;SDS011;10375;49.136;10.366;2024-02-16T01:41:18;13.75;;;5.45;;
20431;SDS011;10375;49.136;10.366;2024-02-16T01:43:45;5.20;;;4.47;;
20431;SDS011;10375;49.136;10.366;2024-02-16T01:46:12;7.05;;;4.22;;
20431;SDS011;10375;49.136;10.366;2024-02-16T01:48:42;5.13;;;3.88;;
20431;SDS011;10375;49.136;10.366;2024-02-16T01:51:09;7.03;;;4.50;;
20431;SDS011;10375;49.136;10.366;2024-02-16T01:53:38;7.20;;;4.28;;
20431;SDS011;10375;49.136;10.366;2024-02-16T01:56:06;11.07;;;4.75;;
20431;SDS011;10375;49.136;10.366;2024-02-16T01:58:34;7.68;;;4.20;;
20431;SDS011;10375;49.136;10.366;2024-02-16T02:03:35;5.32;;;3.95;;
20431;SDS011;10375;49.136;10.366;2024-02-16T02:06:02;6.32;;;4.50;;
20431;SDS011;10375;49.136;10.366;2024-02-16T02:08:29;4.97;;;4.32;;
20431;SDS011;10375;49.136;10.366;2024-02-16T02:10:56;6.00;;;4.03;;
20431;SDS011;10375;49.136;10.366;2024-02-16T02:13:24;6.82;;;4.82;;
20431;SDS011;10375;49.136;10.366;2024-02-16T02:15:51;7.88;;;4.82;;
20431;SDS011;10375;49.136;10.366;2024-02-16T02:18:20;9.43;;;4.90;;
20431;SDS011;10375;49.136;10.366;2024-02-16T02:20:47;7.00;;;4.90;;
20431;SDS011;10375;49.136;10.366;2024-02-16T02:23:14;10.25;;;4.15;;
20431;SDS011;10375;49.136;10.366;2024-02-16T02:25:41;7.38;;;4.78;;
20431;SDS011;10375;49.136;10.366;2024-02-16T02:28:10;7.03;;;4.72;;
20431;SDS011;10375;49.136;10.366;2024-02-16T02:30:37;8.13;;;4.45;;
20431;SDS011;10375;49.136;10.366;2024-02-16T02:33:04;6.63;;;4.55;;
20431;SDS011;10375;49.136;10.366;2024-02-16T02:35:32;13.00;;;4.90;;
20431;SDS011;10375;49.136;10.366;2024-02-16T02:37:59;8.55;;;4.93;;
20431;SDS011;10375;49.136;10.366;2024-02-16T02:40:27;9.27;;;4.30;;
20431;SDS011;10375;49.136;10.366;2024-02-16T02:42:54;6.70;;;4.25;;
20431;SDS011;10375;49.136;10.366;2024-02-16T02:45:22;7.65;;;4.63;;
20431;SDS011;10375;49.136;10.366;2024-02-16T02:47:50;8.18;;;4.55;;
20431;SDS011;10375;49.136;10.366;2024-02-16T02:50:18;7.05;;;5.15;;
20431;SDS011;10375;49.136;10.366;2024-02-16T02:52:46;6.78;;;4.45;;
20431;SDS011;10375;49.136;10.366;2024-02-16T02:55:13;7.25;;;4.95;;
20431;SDS011;10375;49.136;10.366;2024-02-16T02:57:41;9.02;;;5.50;;
20431;SDS011;10375;49.136;10.366;2024-02-16T03:02:42;12.27;;;5.03;;
20431;SDS011;10375;49.136;10.366;2024-02-16T03:05:15;5.68;;;4.25;;
20431;SDS011;10375;49.136;10.366;2024-02-16T03:07:42;7.32;;;5.32;;
20431;SDS011;10375;49.136;10.366;2024-02-16T03:10:10;8.32;;;5.40;;
20431;SDS011;10375;49.136;10.366;2024-02-16T03:12:37;8.23;;;5.18;;
20431;SDS011;10375;49.136;10.366;2024-02-16T03:15:05;8.82;;;5.55;;
20431;SDS011;10375;49.136;10.366;2024-02-16T03:17:32;7.85;;;5.85;;
20431;SDS011;10375;49.136;10.366;2024-02-16T03:20:00;13.20;;;5.90;;
20431;SDS011;10375;49.136;10.366;2024-02-16T03:22:27;11.48;;;6.57;;
20431;SDS011;10375;49.136;10.366;2024-02-16T03:24:54;8.38;;;5.60;;
20431;SDS011;10375;49.136;10.366;2024-02-16T03:27:24;9.18;;;5.68;;
20431;SDS011;10375;49.136;10.366;2024-02-16T03:32:22;8.18;;;5.30;;
20431;SDS011;10375;49.136;10.366;2024-02-16T03:34:51;9.32;;;5.43;;
20431;SDS011;10375;49.136;10.366;2024-02-16T03:37:19;9.02;;;5.57;;
20431;SDS011;10375;49.136;10.366;2024-02-16T03:39:47;8.40;;;5.70;;
20431;SDS011;10375;49.136;10.366;2024-02-16T03:42:14;5.55;;;5.00;;
20431;SDS011;10375;49.136;10.366;2024-02-16T03:44:43;8.45;;;5.35;;
20431;SDS011;10375;49.136;10.366;2024-02-16T03:47:10;7.43;;;5.45;;
20431;SDS011;10375;49.136;10.366;2024-02-16T03:49:38;8.00;;;5.35;;
20431;SDS011;10375;49.136;10.366;2024-02-16T03:52:06;7.60;;;5.53;;
20431;SDS011;10375;49.136;10.366;2024-02-16T03:54:35;10.60;;;6.47;;
20431;SDS011;10375;49.136;10.366;2024-02-16T03:57:02;9.80;;;7.00;;
20431;SDS011;10375;49.136;10.366;2024-02-16T03:59:33;8.85;;;6.32;;
20431;SDS011;10375;49.136;10.366;2024-02-16T04:02:01;10.55;;;6.68;;
20431;SDS011;10375;49.136;10.366;2024-02-16T04:04:28;9.82;;;6.00;;
20431;SDS011;10375;49.136;10.366;2024-02-16T04:06:55;9.70;;;6.22;;
20431;SDS011;10375;49.136;10.366;2024-02-16T04:09:24;9.85;;;5.55;;
20431;SDS011;10375;49.136;10.366;2024-02-16T04:11:52;8.55;;;5.90;;
20431;SDS011;10375;49.136;10.366;2024-02-16T04:14:19;9.55;;;6.20;;
20431;SDS011;10375;49.136;10.366;2024-02-16T04:16:46;8.98;;;6.20;;
20431;SDS011;10375;49.136;10.366;2024-02-16T04:19:13;10.18;;;6.45;;
20431;SDS011;10375;49.136;10.366;2024-02-16T04:21:42;12.40;;;6.85;;
20431;SDS011;10375;49.136;10.366;2024-02-16T04:24:09;9.45;;;6.80;;
20431;SDS011;10375;49.136;10.366;2024-02-16T04:26:36;10.98;;;7.30;;
20431;SDS011;10375;49.136;10.366;2024-02-16T04:29:03;15.45;;;7.13;;
20431;SDS011;10375;49.136;10.366;2024-02-16T04:31:33;10.93;;;6.97;;
20431;SDS011;10375;49.136;10.366;2024-02-16T04:34:00;10.63;;;6.88;;
20431;SDS011;10375;49.136;10.366;2024-02-16T04:36:28;18.25;;;7.65;;
20431;SDS011;10375;49.136;10.366;2024-02-16T04:38:55;11.60;;;7.03;;
20431;SDS011;10375;49.136;10.366;2024-02-16T04:41:23;12.82;;;7.43;;
20431;SDS011;10375;49.136;10.366;2024-02-16T04:43:52;11.23;;;7.65;;
20431;SDS011;10375;49.136;10.366;2024-02-16T04:46:19;10.50;;;7.60;;
20431;SDS011;10375;49.136;10.366;2024-02-16T04:48:48;13.05;;;7.15;;
20431;SDS011;10375;49.136;10.366;2024-02-16T04:51:15;12.38;;;7.65;;
20431;SDS011;10375;49.136;10.366;2024-02-16T04:53:42;16.27;;;8.68;;
20431;SDS011;10375;49.136;10.366;2024-02-16T04:56:11;11.07;;;7.63;;
20431;SDS011;10375;49.136;10.366;2024-02-16T04:58:41;14.35;;;7.43;;
20431;SDS011;10375;49.136;10.366;2024-02-16T05:01:10;12.43;;;7.40;;
20431;SDS011;10375;49.136;10.366;2024-02-16T05:03:37;11.68;;;7.97;;
20431;SDS011;10375;49.136;10.366;2024-02-16T05:06:07;9.57;;;7.40;;
20431;SDS011;10375;49.136;10.366;2024-02-16T05:08:42;11.10;;;7.70;;
20431;SDS011;10375;49.136;10.366;2024-02-16T05:11:09;15.05;;;7.57;;
20431;SDS011;10375;49.136;10.366;2024-02-16T05:13:36;20.47;;;8.80;;
20431;SDS011;10375;49.136;10.366;2024-02-16T05:16:07;15.70;;;8.23;;
20431;SDS011;10375;49.136;10.366;2024-02-16T05:18:35;11.82;;;8.20;;
20431;SDS011;10375;49.136;10.366;2024-02-16T05:21:03;12.15;;;8.40;;
20431;SDS011;10375;49.136;10.366;2024-02-16T05:23:30;12.27;;;9.00;;
20431;SDS011;10375;49.136;10.366;2024-02-16T05:25:57;12.13;;;9.07;;
20431;SDS011;10375;49.136;10.366;2024-02-16T05:28:24;18.02;;;8.35;;
20431;SDS011;10375;49.136;10.366;2024-02-16T05:30:52;12.90;;;8.93;;
20431;SDS011;10375;49.136;10.366;2024-02-16T05:33:19;15.63;;;8.80;;
20431;SDS011;10375;49.136;10.366;2024-02-16T05:35:46;15.67;;;8.83;;
20431;SDS011;10375;49.136;10.366;2024-02-16T05:38:21;13.43;;;9.10;;
20431;SDS011;10375;49.136;10.366;2024-02-16T05:40:59;13.20;;;8.98;;
20431;SDS011;10375;49.136;10.366;2024-02-16T05:43:26;15.95;;;10.00;;
20431;SDS011;10375;49.136;10.366;2024-02-16T05:45:53;15.43;;;9.40;;
20431;SDS011;10375;49.136;10.366;2024-02-16T05:48:22;15.30;;;10.23;;
20431;SDS011;10375;49.136;10.366;2024-02-16T05:50:51;14.00;;;8.60;;
20431;SDS011;10375;49.136;10.366;2024-02-16T05:53:19;18.35;;;10.40;;
20431;SDS011;10375;49.136;10.366;2024-02-16T05:55:48;14.80;;;9.23;;
20431;SDS011;10375;49.136;10.366;2024-02-16T05:58:16;12.82;;;8.30;;
20431;SDS011;10375;49.136;10.366;2024-02-16T06:00:46;23.90;;;12.32;;
20431;SDS011;10375;49.136;10.366;2024-02-16T06:03:14;14.48;;;9.20;;
20431;SDS011;10375;49.136;10.366;2024-02-16T06:05:43;36.13;;;12.48;;
20431;SDS011;10375;49.136;10.366;2024-02-16T06:08:13;17.58;;;10.38;;
20431;SDS011;10375;49.136;10.366;2024-02-16T06:10:42;17.58;;;11.38;;
20431;SDS011;10375;49.136;10.366;2024-02-16T06:13:09;39.63;;;12.27;;
20431;SDS011;10375;49.136;10.366;2024-02-16T06:15:36;18.83;;;10.57;;
20431;SDS011;10375;49.136;10.366;2024-02-16T06:18:04;17.88;;;11.05;;
20431;SDS011;10375;49.136;10.366;2024-02-16T06:20:31;16.40;;;10.30;;
20431;SDS011;10375;49.136;10.366;2024-02-16T06:22:59;15.23;;;10.23;;
20431;SDS011;10375;49.136;10.366;2024-02-16T06:25:26;18.85;;;10.50;;
20431;SDS011;10375;49.136;10.366;2024-02-16T06:27:53;18.67;;;11.20;;
20431;SDS011;10375;49.136;10.366;2024-02-16T06:30:20;16.80;;;10.95;;
20431;SDS011;10375;49.136;10.366;2024-02-16T06:32:48;33.38;;;13.40;;
20431;SDS011;10375;49.136;10.366;2024-02-16T06:35:15;20.00;;;11.13;;
20431;SDS011;10375;49.136;10.366;2024-02-16T06:37:42;19.13;;;11.63;;
20431;SDS011;10375;49.136;10.366;2024-02-16T06:40:09;18.00;;;10.90;;
20431;SDS011;10375;49.136;10.366;2024-02-16T06:42:37;22.75;;;11.18;;
20431;SDS011;10375;49.136;10.366;2024-02-16T06:45:05;19.75;;;12.05;;
20431;SDS011;10375;49.136;10.366;2024-02-16T06:47:33;15.73;;;11.30;;
20431;SDS011;10375;49.136;10.366;2024-02-16T06:50:00;19.73;;;10.83;;
20431;SDS011;10375;49.136;10.366;2024-02-16T06:52:27;22.95;;;11.93;;
20431;SDS011;10375;49.136;10.366;2024-02-16T06:54:55;26.80;;;13.77;;
20431;SDS011;10375;49.136;10.366;2024-02-16T06:57:22;17.80;;;12.20;;
20431;SDS011;10375;49.136;10.366;2024-02-16T06:59:52;21.83;;;12.80;;
20431;SDS011;10375;49.136;10.366;2024-02-16T07:02:24;21.42;;;13.23;;
20431;SDS011;10375;49.136;10.366;2024-02-16T07:04:51;19.58;;;12.98;;
20431;SDS011;10375;49.136;10.366;2024-02-16T07:07:21;22.33;;;13.75;;
20431;SDS011;10375;49.136;10.366;2024-02-16T07:09:48;22.20;;;12.85;;
20431;SDS011;10375;49.136;10.366;2024-02-16T07:12:15;19.02;;;13.15;;
20431;SDS011;10375;49.136;10.366;2024-02-16T07:14:42;24.75;;;12.60;;
20431;SDS011;10375;49.136;10.366;2024-02-16T07:17:12;19.95;;;13.63;;
20431;SDS011;10375;49.136;10.366;2024-02-16T07:19:39;19.42;;;12.45;;
20431;SDS011;10375;49.136;10.366;2024-02-16T07:22:06;22.63;;;13.55;;
20431;SDS011;10375;49.136;10.366;2024-02-16T07:24:33;20.70;;;13.00;;
20431;SDS011;10375;49.136;10.366;2024-02-16T07:27:00;20.73;;;13.32;;
20431;SDS011;10375;49.136;10.366;2024-02-16T07:29:29;22.13;;;13.88;;
20431;SDS011;10375;49.136;10.366;2024-02-16T07:31:56;20.08;;;12.93;;
20431;SDS011;10375;49.136;10.366;2024-02-16T07:34:24;27.38;;;15.60;;
20431;SDS011;10375;49.136;10.366;2024-02-16T07:36:51;25.42;;;14.00;;
20431;SDS011;10375;49.136;10.366;2024-02-16T07:39:19;21.95;;;13.15;;
20431;SDS011;10375;49.136;10.366;2024-02-16T07:41:49;20.27;;;12.93;;
20431;SDS011;10375;49.136;10.366;2024-02-16T07:44:16;24.15;;;14.15;;
20431;SDS011;10375;49.136;10.366;2024-02-16T07:46:43;21.25;;;13.48;;
20431;SDS011;10375;49.136;10.366;2024-02-16T07:49:12;21.42;;;14.07;;
20431;SDS011;10375;49.136;10.366;2024-02-16T07:51:40;22.75;;;13.73;;
20431;SDS011;10375;49.136;10.366;2024-02-16T07:54:07;21.08;;;14.13;;
20431;SDS011;10375;49.136;10.366;2024-02-16T07:56:36;21.95;;;14.10;;
20431;SDS011;10375;49.136;10.366;2024-02-16T07:59:03;24.33;;;13.77;;
20431;SDS011;10375;49.136;10.366;2024-02-16T08:01:32;25.70;;;14.93;;
20431;SDS011;10375;49.136;10.366;2024-02-16T08:03:59;24.58;;;14.73;;
20431;SDS011;10375;49.136;10.366;2024-02-16T08:06:32;25.25;;;15.30;;
20431;SDS011;10375;49.136;10.366;2024-02-16T08:09:00;26.17;;;14.23;;
20431;SDS011;10375;49.136;10.366;2024-02-16T08:11:28;22.70;;;13.75;;
20431;SDS011;10375;49.136;10.366;2024-02-16T08:13:55;20.98;;;13.00;;
20431;SDS011;10375;49.136;10.366;2024-02-16T08:16:27;27.85;;;14.88;;
20431;SDS011;10375;49.136;10.366;2024-02-16T08:18:54;19.33;;;12.88;;
20431;SDS011;10375;49.136;10.366;2024-02-16T08:21:22;17.75;;;12.15;;
20431;SDS011;10375;49.136;10.366;2024-02-16T08:23:49;18.30;;;12.70;;
20431;SDS011;10375;49.136;10.366;2024-02-16T08:26:17;18.98;;;12.70;;
20431;SDS011;10375;49.136;10.366;2024-02-16T08:28:44;23.60;;;13.45;;
20431;SDS011;10375;49.136;10.366;2024-02-16T08:31:18;20.80;;;12.23;;
20431;SDS011;10375;49.136;10.366;2024-02-16T08:33:45;18.85;;;12.35;;
20431;SDS011;10375;49.136;10.366;2024-02-16T08:36:14;19.08;;;12.13;;
20431;SDS011;10375;49.136;10.366;2024-02-16T08:38:44;17.40;;;12.25;;
20431;SDS011;10375;49.136;10.366;2024-02-16T08:41:11;18.17;;;12.77;;
20431;SDS011;10375;49.136;10.366;2024-02-16T08:43:39;16.65;;;11.00;;
20431;SDS011;10375;49.136;10.366;2024-02-16T08:46:06;17.80;;;12.13;;
20431;SDS011;10375;49.136;10.366;2024-02-16T08:48:34;14.70;;;10.32;;
20431;SDS011;10375;49.136;10.366;2024-02-16T08:51:02;18.70;;;12.30;;
20431;SDS011;10375;49.136;10.366;2024-02-16T08:53:30;18.60;;;11.95;;
20431;SDS011;10375;49.136;10.366;2024-02-16T08:56:00;20.45;;;12.10;;
20431;SDS011;10375;49.136;10.366;2024-02-16T08:58:27;20.02;;;11.45;;
20431;SDS011;10375;49.136;10.366;2024-02-16T09:00:55;16.48;;;11.35;;
20431;SDS011;10375;49.136;10.366;2024-02-16T09:03:23;20.75;;;11.25;;
20431;SDS011;10375;49.136;10.366;2024-02-16T09:05:51;17.00;;;11.35;;
20431;SDS011;10375;49.136;10.366;2024-02-16T09:08:19;21.83;;;12.52;;
20431;SDS011;10375;49.136;10.366;2024-02-16T09:10:46;17.67;;;12.60;;
20431;SDS011;10375;49.136;10.366;2024-02-16T09:13:13;21.58;;;13.48;;
20431;SDS011;10375;49.136;10.366;2024-02-16T09:15:40;19.45;;;13.88;;
20431;SDS011;10375;49.136;10.366;2024-02-16T09:18:07;19.80;;;12.63;;
20431;SDS011;10375;49.136;10.366;2024-02-16T09:20:35;17.92;;;11.88;;
20431;SDS011;10375;49.136;10.366;2024-02-16T09:23:02;13.43;;;10.00;;
20431;SDS011;10375;49.136;10.366;2024-02-16T09:25:30;17.40;;;9.43;;
20431;SDS011;10375;49.136;10.366;2024-02-16T09:27:57;14.50;;;9.95;;
20431;SDS011;10375;49.136;10.366;2024-02-16T09:30:25;15.35;;;8.55;;
20431;SDS011;10375;49.136;10.366;2024-02-16T09:32:53;14.18;;;9.35;;
20431;SDS011;10375;49.136;10.366;2024-02-16T09:35:21;11.93;;;8.20;;
20431;SDS011;10375;49.136;10.366;2024-02-16T09:37:49;13.55;;;8.98;;
20431;SDS011;10375;49.136;10.366;2024-02-16T09:40:20;17.08;;;8.93;;
20431;SDS011;10375;49.136;10.366;2024-02-16T09:42:49;14.13;;;9.18;;
20431;SDS011;10375;49.136;10.366;2024-02-16T09:47:54;13.75;;;9.00;;
20431;SDS011;10375;49.136;10.366;2024-02-16T09:50:32;13.05;;;8.65;;
20431;SDS011;10375;49.136;10.366;2024-02-16T09:53:11;12.93;;;8.90;;
20431;SDS011;10375;49.136;10.366;2024-02-16T09:55:53;13.02;;;8.05;;
20431;SDS011;10375;49.136;10.366;2024-02-16T09:58:21;12.85;;;9.40;;
20431;SDS011;10375;49.136;10.366;2024-02-16T10:00:54;13.13;;;8.80;;
20431;SDS011;10375;49.136;10.366;2024-02-16T10:07:02;11.30;;;8.50;;
20431;SDS011;10375;49.136;10.366;2024-02-16T10:09:38;13.38;;;9.07;;
20431;SDS011;10375;49.136;10.366;2024-02-16T10:12:17;13.77;;;8.68;;
20431;SDS011;10375;49.136;10.366;2024-02-16T10:14:53;15.88;;;8.15;;
20431;SDS011;10375;49.136;10.366;2024-02-16T10:17:28;12.60;;;8.40;;
20431;SDS011;10375;49.136;10.366;2024-02-16T10:19:59;16.13;;;8.30;;
20431;SDS011;10375;49.136;10.366;2024-02-16T10:25:35;13.10;;;7.88;;
20431;SDS011;10375;49.136;10.366;2024-02-16T10:28:04;12.73;;;8.80;;
20431;SDS011;10375;49.136;10.366;2024-02-16T10:30:38;13.20;;;7.75;;
20431;SDS011;10375;49.136;10.366;2024-02-16T10:33:07;12.00;;;7.95;;
20431;SDS011;10375;49.136;10.366;2024-02-16T10:35:35;9.48;;;6.82;;
20431;SDS011;10375;49.136;10.366;2024-02-16T10:38:04;12.27;;;7.13;;
20431;SDS011;10375;49.136;10.366;2024-02-16T10:40:33;9.40;;;6.75;;
20431;SDS011;10375;49.136;10.366;2024-02-16T10:43:10;13.85;;;8.05;;
20431;SDS011;10375;49.136;10.366;2024-02-16T10:45:40;9.75;;;7.13;;
20431;SDS011;10375;49.136;10.366;2024-02-16T10:48:08;10.07;;;7.43;;
20431;SDS011;10375;49.136;10.366;2024-02-16T10:50:36;9.70;;;7.60;;
20431;SDS011;10375;49.136;10.366;2024-02-16T10:53:15;12.32;;;7.90;;
20431;SDS011;10375;49.136;10.366;2024-02-16T10:59:08;12.45;;;8.20;;
20431;SDS011;10375;49.136;10.366;2024-02-16T11:01:41;11.60;;;7.70;;
20431;SDS011;10375;49.136;10.366;2024-02-16T11:04:14;10.07;;;7.55;;
20431;SDS011;10375;49.136;10.366;2024-02-16T11:06:56;11.18;;;8.02;;
20431;SDS011;10375;49.136;10.366;2024-02-16T11:09:30;11.43;;;7.60;;
20431;SDS011;10375;49.136;10.366;2024-02-16T11:12:17;13.30;;;8.00;;
20431;SDS011;10375;49.136;10.366;2024-02-16T11:14:45;12.43;;;7.55;;
20431;SDS011;10375;49.136;10.366;2024-02-16T11:17:19;14.65;;;7.80;;
20431;SDS011;10375;49.136;10.366;2024-02-16T11:19:49;10.70;;;7.10;;
20431;SDS011;10375;49.136;10.366;2024-02-16T11:22:17;11.40;;;6.95;;
20431;SDS011;10375;49.136;10.366;2024-02-16T11:24:48;11.10;;;7.43;;
20431;SDS011;10375;49.136;10.366;2024-02-16T11:27:17;10.93;;;6.88;;
20431;SDS011;10375;49.136;10.366;2024-02-16T11:29:49;17.35;;;7.05;;
20431;SDS011;10375;49.136;10.366;2024-02-16T11:32:20;10.23;;;7.07;;
20431;SDS011;10375;49.136;10.366;2024-02-16T11:34:48;11.95;;;6.18;;
20431;SDS011;10375;49.136;10.366;2024-02-16T11:37:15;8.15;;;6.20;;
20431;SDS011;10375;49.136;10.366;2024-02-16T11:39:43;7.13;;;5.57;;
20431;SDS011;10375;49.136;10.366;2024-02-16T11:42:13;8.60;;;6.07;;
20431;SDS011;10375;49.136;10.366;2024-02-16T11:44:52;8.55;;;5.57;;
20431;SDS011;10375;49.136;10.366;2024-02-16T11:47:22;10.00;;;5.43;;
20431;SDS011;10375;49.136;10.366;2024-02-16T11:50:00;8.57;;;5.95;;
20431;SDS011;10375;49.136;10.366;2024-02-16T11:52:38;11.45;;;5.57;;
20431;SDS011;10375;49.136;10.366;2024-02-16T11:55:09;14.25;;;5.82;;
20431;SDS011;10375;49.136;10.366;2024-02-16T11:57:38;6.95;;;5.10;;
20431;SDS011;10375;49.136;10.366;2024-02-16T12:00:06;5.30;;;3.83;;
20431;SDS011;10375;49.136;10.366;2024-02-16T12:02:35;6.85;;;2.83;;
20431;SDS011;10375;49.136;10.366;2024-02-16T12:05:03;3.75;;;2.55;;
20431;SDS011;10375;49.136;10.366;2024-02-16T12:07:32;3.40;;;2.28;;
20431;SDS011;10375;49.136;10.366;2024-02-16T12:10:02;2.88;;;1.88;;
20431;SDS011;10375;49.136;10.366;2024-02-16T12:12:33;4.10;;;2.30;;
20431;SDS011;10375;49.136;10.366;2024-02-16T12:15:01;6.32;;;2.88;;
20431;SDS011;10375;49.136;10.366;2024-02-16T12:17:31;2.83;;;1.70;;
20431;SDS011;10375;49.136;10.366;2024-02-16T12:19:59;3.13;;;2.05;;
20431;SDS011;10375;49.136;10.366;2024-02-16T12:22:28;3.83;;;1.92;;
20431;SDS011;10375;49.136;10.366;2024-02-16T12:24:56;2.92;;;1.90;;
20431;SDS011;10375;49.136;10.366;2024-02-16T12:27:27;2.58;;;1.70;;
20431;SDS011;10375;49.136;10.366;2024-02-16T12:29:55;2.20;;;1.70;;
20431;SDS011;10375;49.136;10.366;2024-02-16T12:32:22;3.63;;;1.70;;
20431;SDS011;10375;49.136;10.366;2024-02-16T12:34:49;3.78;;;1.50;;
20431;SDS011;10375;49.136;10.366;2024-02-16T12:37:16;4.75;;;1.30;;
20431;SDS011;10375;49.136;10.366;2024-02-16T12:39:44;4.93;;;1.52;;
20431;SDS011;10375;49.136;10.366;2024-02-16T12:42:13;4.82;;;1.60;;
20431;SDS011;10375;49.136;10.366;2024-02-16T12:44:41;2.30;;;1.55;;
20431;SDS011;10375;49.136;10.366;2024-02-16T12:47:08;3.38;;;1.58;;
20431;SDS011;10375;49.136;10.366;2024-02-16T12:49:36;3.55;;;1.23;;
20431;SDS011;10375;49.136;10.366;2024-02-16T12:52:03;6.22;;;1.45;;
20431;SDS011;10375;49.136;10.366;2024-02-16T12:54:30;3.17;;;1.45;;
20431;SDS011;10375;49.136;10.366;2024-02-16T12:56:59;2.75;;;1.63;;
20431;SDS011;10375;49.136;10.366;2024-02-16T12:59:27;1.77;;;1.30;;
20431;SDS011;10375;49.136;10.366;2024-02-16T13:01:54;7.10;;;1.35;;
20431;SDS011;10375;49.136;10.366;2024-02-16T13:04:21;7.57;;;1.60;;
20431;SDS011;10375;49.136;10.366;2024-02-16T13:06:49;2.13;;;1.40;;
20431;SDS011;10375;49.136;10.366;2024-02-16T13:09:19;1.98;;;1.60;;
20431;SDS011;10375;49.136;10.366;2024-02-16T13:11:46;4.25;;;1.83;;
20431;SDS011;10375;49.136;10.366;2024-02-16T13:14:21;2.28;;;1.50;;
20431;SDS011;10375;49.136;10.366;2024-02-16T13:16:48;3.67;;;1.60;;
20431;SDS011;10375;49.136;10.366;2024-02-16T13:19:16;2.40;;;1.48;;
20431;SDS011;10375;49.136;10.366;2024-02-16T13:21:45;2.88;;;1.30;;
20431;SDS011;10375;49.136;10.366;2024-02-16T13:24:12;3.25;;;1.67;;
20431;SDS011;10375;49.136;10.366;2024-02-16T13:26:40;4.28;;;1.45;;
20431;SDS011;10375;49.136;10.366;2024-02-16T13:29:07;4.32;;;1.70;;
20431;SDS011;10375;49.136;10.366;2024-02-16T13:31:35;3.65;;;1.77;;
20431;SDS011;10375;49.136;10.366;2024-02-16T13:34:03;5.25;;;1.60;;
20431;SDS011;10375;49.136;10.366;2024-02-16T13:36:30;4.72;;;1.95;;
20431;SDS011;10375;49.136;10.366;2024-02-16T13:38:57;4.50;;;1.70;;
20431;SDS011;10375;49.136;10.366;2024-02-16T13:41:25;6.40;;;2.20;;
20431;SDS011;10375;49.136;10.366;2024-02-16T13:43:52;4.35;;;1.75;;
20431;SDS011;10375;49.136;10.366;2024-02-16T13:46:20;3.80;;;1.77;;
20431;SDS011;10375;49.136;10.366;2024-02-16T13:48:48;3.08;;;1.65;;
20431;SDS011;10375;49.136;10.366;2024-02-16T13:51:15;5.47;;;2.25;;
20431;SDS011;10375;49.136;10.366;2024-02-16T13:53:42;4.57;;;1.50;;
20431;SDS011;10375;49.136;10.366;2024-02-16T13:56:10;4.15;;;1.70;;
20431;SDS011;10375;49.136;10.366;2024-02-16T13:58:37;5.40;;;1.98;;
20431;SDS011;10375;49.136;10.366;2024-02-16T14:01:05;4.85;;;1.52;;
20431;SDS011;10375;49.136;10.366;2024-02-16T14:03:33;2.92;;;2.00;;
20431;SDS011;10375;49.136;10.366;2024-02-16T14:06:01;3.22;;;1.70;;
20431;SDS011;10375;49.136;10.366;2024-02-16T14:08:28;7.97;;;1.65;;
20431;SDS011;10375;49.136;10.366;2024-02-16T14:10:57;4.45;;;1.52;;
20431;SDS011;10375;49.136;10.366;2024-02-16T14:13:24;1.55;;;1.45;;
20431;SDS011;10375;49.136;10.366;2024-02-16T14:15:51;4.85;;;1.77;;
20431;SDS011;10375;49.136;10.366;2024-02-16T14:18:19;2.20;;;1.40;;
20431;SDS011;10375;49.136;10.366;2024-02-16T14:21:00;4.47;;;2.13;;
20431;SDS011;10375;49.136;10.366;2024-02-16T14:23:29;4.95;;;1.88;;
20431;SDS011;10375;49.136;10.366;2024-02-16T14:25:57;5.13;;;1.80;;
20431;SDS011;10375;49.136;10.366;2024-02-16T14:28:25;4.60;;;1.50;;
20431;SDS011;10375;49.136;10.366;2024-02-16T14:30:52;2.30;;;1.40;;
20431;SDS011;10375;49.136;10.366;2024-02-16T14:33:20;6.40;;;1.90;;
20431;SDS011;10375;49.136;10.366;2024-02-16T14:35:59;5.70;;;1.60;;
20431;SDS011;10375;49.136;10.366;2024-02-16T14:38:27;3.00;;;1.35;;
20431;SDS011;10375;49.136;10.366;2024-02-16T14:40:54;4.25;;;2.10;;
20431;SDS011;10375;49.136;10.366;2024-02-16T14:43:21;3.95;;;1.70;;
20431;SDS011;10375;49.136;10.366;2024-02-16T14:45:49;6.63;;;2.17;;
20431;SDS011;10375;49.136;10.366;2024-02-16T14:48:17;4.85;;;2.03;;
20431;SDS011;10375;49.136;10.366;2024-02-16T14:50:44;4.95;;;2.03;;
20431;SDS011;10375;49.136;10.366;2024-02-16T14:53:11;6.13;;;1.73;;